Time;durP1;ratioP1;P1;durP2;ratioP2;P2;SDS_P1;SDS_P2;PMS_P1;PMS_P2;Temp;Humidity;BMP_temperature;BMP_pressure;BME280_temperature;BME280_humidity;BME280_pressure;Samples;Min_cycle;Max_cycle;Signal;HPM_P1;HPM_P2
2022/08/27 00:00:22;;;;;;;28.03;25.03;;;19.20;99.90;;;;;;5022592;28;20448;-81
2022/08/27 00:02:49;;;;;;;28.73;25.60;;;19.20;99.90;;;;;;5023213;28;21010;-81
2022/08/27 00:05:18;;;;;;;28.17;25.30;;;19.20;99.90;;;;;;5023626;28;20464;-81
2022/08/27 00:07:46;;;;;;;31.90;26.63;;;19.20;99.90;;;;;;5025777;28;20457;-81
2022/08/27 00:10:16;;;;;;;30.70;27.40;;;19.30;99.90;;;;;;5027543;28;20453;-81
2022/08/27 00:12:43;;;;;;;33.13;27.40;;;19.30;99.90;;;;;;5027435;28;20567;-81
2022/08/27 00:15:11;;;;;;;34.93;30.20;;;19.30;99.90;;;;;;5024052;28;20947;-81
2022/08/27 00:17:39;;;;;;;32.60;27.57;;;19.30;99.90;;;;;;5022641;28;20831;-80
2022/08/27 00:20:07;;;;;;;32.47;29.07;;;19.30;99.90;;;;;;5025144;28;20446;-80
2022/08/27 00:22:34;;;;;;;30.73;27.43;;;19.40;99.90;;;;;;5027686;28;20479;-81
2022/08/27 00:25:01;;;;;;;31.17;27.90;;;19.40;99.90;;;;;;5024670;28;20450;-81
2022/08/27 00:27:28;;;;;;;33.50;27.50;;;19.40;99.90;;;;;;5022509;28;20485;-81
2022/08/27 00:29:54;;;;;;;31.13;27.50;;;19.50;99.90;;;;;;5022644;28;20453;-81
2022/08/27 00:32:21;;;;;;;33.40;29.27;;;19.50;99.90;;;;;;5022643;28;20541;-81
2022/08/27 00:34:50;;;;;;;32.60;29.10;;;19.50;99.90;;;;;;5022885;28;20529;-81
2022/08/27 00:37:17;;;;;;;33.30;28.00;;;19.50;99.90;;;;;;5015944;28;20508;-81
2022/08/27 00:39:44;;;;;;;33.23;29.40;;;19.50;99.90;;;;;;5014878;28;20450;-81
2022/08/27 00:42:11;;;;;;;35.83;32.03;;;19.50;99.90;;;;;;5014690;28;20472;-81
2022/08/27 00:44:38;;;;;;;33.83;29.13;;;19.50;99.90;;;;;;5020857;28;20944;-81
2022/08/27 00:47:10;;;;;;;36.03;32.23;;;19.50;99.90;;;;;;5015687;28;20454;-81
2022/08/27 00:49:40;;;;;;;34.80;29.80;;;19.50;99.90;;;;;;5021710;28;20445;-81
2022/08/27 00:52:16;;;;;;;34.20;30.10;;;19.60;99.90;;;;;;5014800;28;20480;-81
2022/08/27 00:54:42;;;;;;;34.30;30.20;;;19.60;99.90;;;;;;5015141;28;20453;-80
2022/08/27 00:57:09;;;;;;;33.90;30.50;;;19.60;99.90;;;;;;5021799;28;20494;-79
2022/08/27 00:59:36;;;;;;;36.53;31.50;;;19.60;99.90;;;;;;5028730;28;20458;-80
2022/08/27 01:02:18;;;;;;;34.90;31.37;;;19.60;99.90;;;;;;5027687;28;20477;-81
2022/08/27 01:04:48;;;;;;;33.13;29.23;;;19.60;99.90;;;;;;5015120;28;20460;-81
2022/08/27 01:07:17;;;;;;;35.90;32.10;;;19.50;99.90;;;;;;5021318;28;20431;-81
2022/08/27 01:09:46;;;;;;;31.57;28.20;;;19.60;99.90;;;;;;5022955;28;20464;-81
2022/08/27 01:12:14;;;;;;;32.47;28.53;;;19.60;99.90;;;;;;5027459;28;20477;-81
2022/08/27 01:14:42;;;;;;;33.73;30.17;;;19.60;99.90;;;;;;5028087;28;20461;-81
2022/08/27 01:17:10;;;;;;;34.00;29.77;;;19.60;99.90;;;;;;5027524;28;20490;-81
2022/08/27 01:19:42;;;;;;;33.23;29.57;;;19.60;99.90;;;;;;5014545;28;20446;-81
2022/08/27 01:22:46;;;;;;;34.80;29.90;;;19.60;99.90;;;;;;5014701;28;21008;-81
2022/08/27 01:25:16;;;;;;;32.97;27.77;;;19.60;99.90;;;;;;5013709;28;20505;-81
2022/08/27 01:27:44;;;;;;;37.33;31.60;;;19.60;99.90;;;;;;5013958;28;20453;-81
2022/08/27 01:30:14;;;;;;;34.37;30.77;;;19.70;99.90;;;;;;5014226;28;20449;-80
2022/08/27 01:32:43;;;;;;;34.77;29.97;;;19.60;99.90;;;;;;5020581;28;20493;-80
2022/08/27 01:35:12;;;;;;;33.97;29.70;;;19.60;99.90;;;;;;5026634;28;20523;-80
2022/08/27 01:37:40;;;;;;;32.23;28.80;;;19.60;99.90;;;;;;5025981;28;20573;-80
2022/08/27 01:40:08;;;;;;;31.70;28.40;;;19.60;99.90;;;;;;5026911;28;20525;-80
2022/08/27 01:42:38;;;;;;;36.00;29.33;;;19.60;99.90;;;;;;5025981;28;20467;-81
2022/08/27 01:45:07;;;;;;;31.30;28.00;;;19.60;99.90;;;;;;5026663;28;20458;-80
2022/08/27 01:47:35;;;;;;;32.97;28.90;;;19.60;99.90;;;;;;5026331;28;20438;-80
2022/08/27 01:50:04;;;;;;;33.67;29.30;;;19.50;99.90;;;;;;5026513;28;20450;-80
2022/08/27 01:52:31;;;;;;;33.30;29.70;;;19.50;99.90;;;;;;5026930;28;20473;-80
2022/08/27 01:54:58;;;;;;;33.50;28.93;;;19.50;99.90;;;;;;5027216;28;20532;-80
2022/08/27 01:57:25;;;;;;;32.60;29.07;;;19.60;99.90;;;;;;5026311;28;20496;-80
2022/08/27 01:59:55;;;;;;;37.67;30.47;;;19.60;99.90;;;;;;5026200;28;20438;-80
2022/08/27 02:02:22;;;;;;;30.53;27.27;;;19.60;99.90;;;;;;5026970;28;20994;-80
2022/08/27 02:04:49;;;;;;;32.90;29.03;;;19.60;99.90;;;;;;5026203;28;20456;-80
2022/08/27 02:07:16;;;;;;;37.30;29.37;;;19.60;99.90;;;;;;5027084;28;20450;-80
2022/08/27 02:09:43;;;;;;;32.93;29.43;;;19.60;99.90;;;;;;5026493;28;20446;-80
2022/08/27 02:12:09;;;;;;;31.27;28.07;;;19.60;99.90;;;;;;5026264;28;20474;-80
2022/08/27 02:14:36;;;;;;;32.93;27.97;;;19.60;99.90;;;;;;5026563;28;20476;-80
2022/08/27 02:17:04;;;;;;;35.53;31.67;;;19.60;99.90;;;;;;5027585;28;20493;-80
2022/08/27 02:19:31;;;;;;;32.40;29.10;;;19.60;99.90;;;;;;5029695;28;20449;-80
2022/08/27 02:21:59;;;;;;;30.43;27.33;;;19.60;99.90;;;;;;5029544;28;20473;-80
2022/08/27 02:24:26;;;;;;;32.43;27.57;;;19.60;99.90;;;;;;5029662;28;20450;-79
2022/08/27 02:26:53;;;;;;;31.70;26.97;;;19.60;99.90;;;;;;5030148;28;20507;-80
2022/08/27 02:29:20;;;;;;;32.37;27.23;;;19.60;99.90;;;;;;5028307;28;20461;-80
2022/08/27 02:31:47;;;;;;;32.13;28.73;;;19.60;99.90;;;;;;5028670;28;20470;-80
2022/08/27 02:34:15;;;;;;;32.93;28.23;;;19.60;99.90;;;;;;5029310;28;20453;-80
2022/08/27 02:36:42;;;;;;;31.67;27.77;;;19.60;99.90;;;;;;5029052;28;20485;-80
2022/08/27 02:39:09;;;;;;;33.70;28.77;;;19.60;99.90;;;;;;5029262;28;20468;-80
2022/08/27 02:41:36;;;;;;;36.30;30.13;;;19.50;99.90;;;;;;5028855;28;20482;-80
2022/08/27 02:44:04;;;;;;;36.07;30.50;;;19.50;99.90;;;;;;5025204;28;20465;-81
2022/08/27 02:46:31;;;;;;;37.53;30.77;;;19.50;99.90;;;;;;5023510;28;20439;-81
2022/08/27 02:48:58;;;;;;;32.10;28.60;;;19.50;99.90;;;;;;5023141;28;20466;-80
2022/08/27 02:51:26;;;;;;;38.50;33.77;;;19.50;99.90;;;;;;5023319;28;20476;-80
2022/08/27 02:53:53;;;;;;;39.00;30.07;;;19.60;99.90;;;;;;5022602;28;20458;-80
2022/08/27 02:56:20;;;;;;;36.67;30.33;;;19.60;99.90;;;;;;5022695;28;20484;-80
2022/08/27 02:58:46;;;;;;;36.30;29.23;;;19.60;99.90;;;;;;5022576;28;20450;-81
2022/08/27 03:01:14;;;;;;;39.20;28.30;;;19.60;99.90;;;;;;5022990;28;20462;-81
2022/08/27 03:03:42;;;;;;;32.77;29.20;;;19.50;99.90;;;;;;5023309;28;20462;-80
2022/08/27 03:06:09;;;;;;;39.90;35.37;;;19.50;99.90;;;;;;5022996;28;20454;-80
2022/08/27 03:08:37;;;;;;;33.90;29.67;;;19.50;99.90;;;;;;5020530;28;20452;-82
2022/08/27 03:11:05;;;;;;;41.73;31.37;;;19.40;99.90;;;;;;5016650;28;20446;-80
2022/08/27 03:13:36;;;;;;;40.97;35.70;;;19.40;99.90;;;;;;5016646;28;20464;-80
2022/08/27 03:16:03;;;;;;;39.27;34.73;;;19.20;99.90;;;;;;5016979;28;20450;-79
2022/08/27 03:18:29;;;;;;;37.83;31.30;;;19.10;99.90;;;;;;5016209;28;20478;-80
2022/08/27 03:20:56;;;;;;;41.73;34.27;;;19.00;99.90;;;;;;5016508;28;20959;-79
2022/08/27 03:23:26;;;;;;;40.87;31.17;;;19.00;99.90;;;;;;5016032;28;20217;-79
2022/08/27 03:25:56;;;;;;;37.03;31.80;;;18.90;99.90;;;;;;5015947;28;20453;-79
2022/08/27 03:28:25;;;;;;;36.07;32.13;;;18.80;99.90;;;;;;5023665;28;20454;-79
2022/08/27 03:30:57;;;;;;;31.43;27.13;;;18.80;99.90;;;;;;5026601;28;20449;-80
2022/08/27 03:33:25;;;;;;;33.83;29.10;;;18.80;99.90;;;;;;5027138;28;20536;-80
2022/08/27 03:35:52;;;;;;;31.40;27.13;;;18.90;99.90;;;;;;5027317;28;20489;-80
2022/08/27 03:38:19;;;;;;;34.33;30.00;;;18.90;99.90;;;;;;5027040;28;20489;-80
2022/08/27 03:40:46;;;;;;;28.97;24.90;;;18.90;99.90;;;;;;5026692;28;20463;-79
2022/08/27 03:43:15;;;;;;;25.40;22.70;;;19.00;99.90;;;;;;5026988;28;20477;-80
2022/08/27 03:45:43;;;;;;;29.20;25.30;;;19.00;99.90;;;;;;5026388;28;20943;-79
2022/08/27 03:48:11;;;;;;;27.67;24.57;;;19.00;99.90;;;;;;5026532;28;20445;-80
2022/08/27 03:50:38;;;;;;;31.63;24.43;;;19.10;99.90;;;;;;5026415;28;20453;-79
2022/08/27 03:53:05;;;;;;;26.03;23.53;;;19.10;99.90;;;;;;5026760;28;20473;-79
2022/08/27 03:55:32;;;;;;;26.10;23.03;;;19.10;99.90;;;;;;5026849;28;20520;-81
2022/08/27 03:57:59;;;;;;;26.07;22.80;;;19.00;99.90;;;;;;5026802;28;20478;-82
2022/08/27 04:00:27;;;;;;;25.23;22.83;;;19.00;99.90;;;;;;5026568;28;20461;-81
2022/08/27 04:02:55;;;;;;;29.27;24.50;;;18.90;99.90;;;;;;5026959;28;20485;-81
2022/08/27 04:05:23;;;;;;;26.50;23.87;;;18.80;99.90;;;;;;5027468;28;20446;-82
2022/08/27 04:07:49;;;;;;;28.63;24.13;;;18.70;99.90;;;;;;5026953;28;20463;-81
2022/08/27 04:10:18;;;;;;;31.10;26.80;;;18.70;99.90;;;;;;5027934;28;20458;-80
2022/08/27 04:12:45;;;;;;;31.07;28.17;;;18.60;99.90;;;;;;5027698;28;20477;-81
2022/08/27 04:15:12;;;;;;;33.60;29.57;;;18.50;99.90;;;;;;5027516;28;20456;-80
2022/08/27 04:17:41;;;;;;;35.53;30.80;;;18.40;99.90;;;;;;5026761;28;20484;-81
2022/08/27 04:20:10;;;;;;;34.93;31.03;;;18.40;99.90;;;;;;5027634;28;20454;-81
2022/08/27 04:22:38;;;;;;;41.10;33.80;;;18.40;99.90;;;;;;5027709;28;20511;-80
2022/08/27 04:25:05;;;;;;;38.43;33.80;;;18.30;99.90;;;;;;5027263;28;20460;-80
2022/08/27 04:27:32;;;;;;;36.83;32.03;;;18.30;99.90;;;;;;5026990;28;20438;-79
2022/08/27 04:30:01;;;;;;;41.70;37.17;;;18.30;99.90;;;;;;5027246;28;20453;-80
2022/08/27 04:32:29;;;;;;;38.43;34.27;;;18.40;99.90;;;;;;5026961;28;20476;-80
2022/08/27 04:34:58;;;;;;;39.70;35.40;;;18.40;99.90;;;;;;5026232;28;20449;-80
2022/08/27 04:37:26;;;;;;;42.43;37.40;;;18.30;99.90;;;;;;5026357;28;20486;-80
2022/08/27 04:39:53;;;;;;;41.67;37.47;;;18.30;99.90;;;;;;5026222;28;20463;-79
2022/08/27 04:42:20;;;;;;;42.13;36.97;;;18.30;99.90;;;;;;5027203;28;20473;-80
2022/08/27 04:44:48;;;;;;;40.97;36.77;;;18.20;99.90;;;;;;5026924;28;20458;-80
2022/08/27 04:47:16;;;;;;;43.27;38.77;;;18.20;99.90;;;;;;5025816;28;20448;-79
2022/08/27 04:49:43;;;;;;;52.17;42.10;;;18.20;99.90;;;;;;5026779;28;20441;-80
2022/08/27 04:52:11;;;;;;;43.73;38.70;;;18.20;99.90;;;;;;5026366;28;20477;-80
2022/08/27 04:54:38;;;;;;;53.50;45.27;;;18.20;99.90;;;;;;5027199;28;20457;-80
2022/08/27 04:57:06;;;;;;;56.43;47.20;;;18.20;99.90;;;;;;5026344;28;20549;-80
2022/08/27 04:59:34;;;;;;;54.80;44.50;;;18.20;99.90;;;;;;5026336;28;20476;-79
2022/08/27 05:02:02;;;;;;;56.07;44.97;;;18.30;99.90;;;;;;5026026;28;20477;-80
2022/08/27 05:04:29;;;;;;;61.07;47.83;;;18.30;99.90;;;;;;5026215;28;20529;-80
2022/08/27 05:06:56;;;;;;;58.30;47.27;;;18.30;99.90;;;;;;5026152;28;20450;-80
2022/08/27 05:09:24;;;;;;;60.30;46.93;;;18.30;99.90;;;;;;5026289;28;20454;-79
2022/08/27 05:11:52;;;;;;;64.50;49.63;;;18.30;99.90;;;;;;5026169;28;20480;-80
2022/08/27 05:14:21;;;;;;;61.17;50.27;;;18.30;99.90;;;;;;5026736;28;20520;-80
2022/08/27 05:16:47;;;;;;;64.70;49.80;;;18.30;99.90;;;;;;5026831;28;20948;-80
2022/08/27 05:19:15;;;;;;;61.00;48.00;;;18.30;99.90;;;;;;5026799;28;20459;-80
2022/08/27 05:21:45;;;;;;;67.70;49.47;;;18.30;99.90;;;;;;5026374;28;20504;-80
2022/08/27 05:24:12;;;;;;;66.90;49.73;;;18.30;99.90;;;;;;5026370;28;20483;-79
2022/08/27 05:26:41;;;;;;;66.43;50.70;;;18.30;99.90;;;;;;5026887;28;20468;-80
2022/08/27 05:29:08;;;;;;;57.53;46.47;;;18.40;99.90;;;;;;5026448;28;20445;-80
2022/08/27 05:31:35;;;;;;;62.30;47.33;;;18.40;99.90;;;;;;5026664;28;20971;-80
2022/08/27 05:34:04;;;;;;;60.60;49.93;;;18.40;99.90;;;;;;5025651;28;20457;-80
2022/08/27 05:36:33;;;;;;;56.47;47.07;;;18.40;99.90;;;;;;5027044;28;20492;-80
2022/08/27 05:39:01;;;;;;;64.67;46.80;;;18.50;99.90;;;;;;5026069;28;20503;-80
2022/08/27 05:41:30;;;;;;;59.77;47.70;;;18.50;99.90;;;;;;5026147;28;20561;-79
2022/08/27 05:44:01;;;;;;;60.00;46.77;;;18.50;99.90;;;;;;5026378;28;20457;-80
2022/08/27 05:46:28;;;;;;;66.40;48.77;;;18.60;99.90;;;;;;5026972;28;20450;-80
2022/08/27 05:48:57;;;;;;;54.53;46.90;;;18.60;99.90;;;;;;5025886;28;20807;-80
2022/08/27 05:51:27;;;;;;;69.70;50.07;;;18.70;99.90;;;;;;5026320;28;20473;-80
2022/08/27 05:53:56;;;;;;;60.93;46.07;;;18.90;99.90;;;;;;5029898;28;20453;-80
2022/08/27 05:56:25;;;;;;;56.37;44.30;;;19.00;99.90;;;;;;5030049;28;20445;-80
2022/08/27 06:01:39;;;;;;;61.43;47.60;;;19.00;99.90;;;;;;5029732;28;20449;-80
2022/08/27 06:04:07;;;;;;;55.27;47.80;;;19.00;99.90;;;;;;5029744;28;20451;-80
2022/08/27 06:06:35;;;;;;;57.20;47.63;;;18.90;99.90;;;;;;5030513;28;20545;-80
2022/08/27 06:09:02;;;;;;;70.93;51.93;;;19.00;99.90;;;;;;5029476;28;20450;-80
2022/08/27 06:11:28;;;;;;;60.20;52.17;;;19.10;99.90;;;;;;5028862;28;20465;-80
2022/08/27 06:13:57;;;;;;;66.17;50.33;;;19.10;99.90;;;;;;5029285;28;20494;-81
2022/08/27 06:16:24;;;;;;;60.60;47.33;;;19.20;99.90;;;;;;5029016;28;20876;-84
2022/08/27 06:18:52;;;;;;;55.20;49.10;;;19.20;99.90;;;;;;5027499;28;20489;-84
2022/08/27 06:21:19;;;;;;;61.17;51.17;;;19.20;99.90;;;;;;5033529;28;20475;-84
2022/08/27 06:23:47;;;;;;;59.70;49.60;;;19.20;99.90;;;;;;5030623;28;20442;-80
2022/08/27 06:26:15;;;;;;;57.90;48.53;;;19.10;99.90;;;;;;5030458;28;20453;-80
2022/08/27 06:28:43;;;;;;;56.40;49.50;;;19.10;99.90;;;;;;5030395;28;20449;-80
2022/08/27 06:31:11;;;;;;;57.13;46.63;;;19.10;99.90;;;;;;5030005;28;20954;-80
2022/08/27 06:33:40;;;;;;;52.80;45.30;;;19.00;99.90;;;;;;5030485;28;20460;-80
2022/08/27 06:36:11;;;;;;;51.43;44.10;;;19.10;99.90;;;;;;5030148;28;20820;-80
2022/08/27 06:38:38;;;;;;;58.07;45.33;;;19.10;99.90;;;;;;5030245;28;20499;-80
2022/08/27 06:41:07;;;;;;;50.87;42.53;;;19.10;99.90;;;;;;5029208;28;20460;-80
2022/08/27 06:43:36;;;;;;;51.07;44.17;;;19.20;99.90;;;;;;5028778;28;20475;-81
2022/08/27 06:46:04;;;;;;;43.50;38.90;;;19.20;99.90;;;;;;5029262;28;20457;-80
2022/08/27 06:48:31;;;;;;;44.87;38.57;;;19.20;99.90;;;;;;5028988;28;20453;-80
2022/08/27 06:50:59;;;;;;;45.40;39.90;;;19.20;99.90;;;;;;5025637;28;20464;-83
2022/08/27 06:53:27;;;;;;;51.50;42.37;;;19.30;99.90;;;;;;5022885;28;20446;-83
2022/08/27 06:55:53;;;;;;;51.07;43.20;;;19.30;99.90;;;;;;5022710;28;20459;-83
2022/08/27 06:58:20;;;;;;;42.93;36.87;;;19.40;99.90;;;;;;5022705;28;21110;-83
2022/08/27 07:00:47;;;;;;;44.43;37.90;;;19.40;99.90;;;;;;5024533;28;20466;-80
2022/08/27 07:03:13;;;;;;;41.90;37.40;;;19.50;99.90;;;;;;5027984;28;20471;-80
2022/08/27 07:05:40;;;;;;;41.43;37.10;;;19.60;99.90;;;;;;5028431;28;20450;-82
2022/08/27 07:08:08;;;;;;;42.93;36.40;;;19.50;99.90;;;;;;5028825;28;20466;-80
2022/08/27 07:10:36;;;;;;;42.77;36.13;;;19.60;99.90;;;;;;5028603;28;20450;-80
2022/08/27 07:13:04;;;;;;;38.47;33.77;;;19.70;99.90;;;;;;5028694;28;20461;-80
2022/08/27 07:15:31;;;;;;;39.60;35.33;;;19.70;99.90;;;;;;5028777;28;20450;-81
2022/08/27 07:17:58;;;;;;;39.10;34.63;;;19.70;99.90;;;;;;5028591;28;20489;-81
2022/08/27 07:20:25;;;;;;;40.40;35.73;;;19.60;99.90;;;;;;5028957;28;20453;-81
2022/08/27 07:22:53;;;;;;;41.20;36.70;;;19.60;99.90;;;;;;5028432;28;20474;-81
2022/08/27 07:25:20;;;;;;;40.53;35.80;;;19.60;99.90;;;;;;5028557;28;20454;-81
2022/08/27 07:27:49;;;;;;;43.97;37.00;;;19.50;99.90;;;;;;5027348;28;20446;-81
2022/08/27 07:30:16;;;;;;;43.43;36.10;;;19.50;99.90;;;;;;5027546;28;20444;-81
2022/08/27 07:32:44;;;;;;;46.53;36.17;;;19.40;99.90;;;;;;5028850;28;20454;-80
2022/08/27 07:35:11;;;;;;;42.50;36.13;;;19.40;99.90;;;;;;5031994;28;20457;-81
2022/08/27 07:37:39;;;;;;;46.80;38.67;;;19.40;99.90;;;;;;5027408;28;20459;-81
2022/08/27 07:40:09;;;;;;;39.17;35.00;;;19.50;99.90;;;;;;5028317;28;20452;-81
2022/08/27 07:45:22;;;;;;;38.53;34.50;;;19.60;99.90;;;;;;5022025;28;20445;-84
2022/08/27 07:47:50;;;;;;;53.40;40.70;;;19.60;99.90;;;;;;5018812;28;20813;-83
2022/08/27 07:50:17;;;;;;;55.70;50.00;;;19.60;99.90;;;;;;5018688;28;20546;-84
2022/08/27 07:52:44;;;;;;;61.63;55.57;;;19.70;99.90;;;;;;5019317;28;20477;-84
2022/08/27 07:55:11;;;;;;;51.77;45.80;;;19.80;99.90;;;;;;5020699;28;20453;-80
2022/08/27 07:57:38;;;;;;;35.90;32.00;;;19.80;99.90;;;;;;5025866;28;20457;-80
2022/08/27 08:00:08;;;;;;;40.30;36.13;;;19.90;99.90;;;;;;5026471;28;20450;-80
2022/08/27 08:02:37;;;;;;;42.50;38.07;;;19.90;99.90;;;;;;5024543;28;20470;-80
2022/08/27 08:05:06;;;;;;;38.77;34.50;;;19.90;99.90;;;;;;5026315;28;20838;-80
2022/08/27 08:07:34;;;;;;;37.07;31.60;;;19.90;99.90;;;;;;5026111;28;20491;-80
2022/08/27 08:10:01;;;;;;;39.03;34.90;;;19.90;99.90;;;;;;5025903;28;20450;-80
2022/08/27 08:12:28;;;;;;;41.27;36.97;;;19.90;99.90;;;;;;5027257;28;20467;-80
2022/08/27 08:14:56;;;;;;;39.43;35.00;;;19.90;99.90;;;;;;5025690;28;20450;-80
2022/08/27 08:17:24;;;;;;;43.97;35.60;;;19.90;99.90;;;;;;5024909;28;20443;-80
2022/08/27 08:19:52;;;;;;;41.50;33.20;;;20.00;99.90;;;;;;5025894;28;20489;-80
2022/08/27 08:22:19;;;;;;;44.97;36.67;;;19.90;99.90;;;;;;5025998;28;20569;-80
2022/08/27 08:24:46;;;;;;;40.47;36.17;;;19.80;99.90;;;;;;5026385;28;20445;-79
2022/08/27 08:27:12;;;;;;;44.27;38.67;;;19.90;99.90;;;;;;5025526;28;20450;-80
2022/08/27 08:29:39;;;;;;;45.37;37.60;;;19.90;99.90;;;;;;5023958;28;20446;-80
2022/08/27 08:32:07;;;;;;;46.70;36.50;;;20.00;99.90;;;;;;5024925;28;20481;-80
2022/08/27 08:34:35;;;;;;;45.07;35.90;;;20.00;99.90;;;;;;5025716;28;20468;-80
2022/08/27 08:37:04;;;;;;;40.57;36.20;;;20.10;99.90;;;;;;5024719;28;20454;-79
2022/08/27 08:39:31;;;;;;;43.73;37.13;;;20.20;99.90;;;;;;5024809;28;20497;-79
2022/08/27 08:41:59;;;;;;;42.13;35.40;;;20.10;99.90;;;;;;5023708;28;20469;-80
2022/08/27 08:44:32;;;;;;;42.07;37.30;;;20.20;99.90;;;;;;5025823;28;20460;-80
2022/08/27 08:47:04;;;;;;;42.23;36.50;;;20.20;99.90;;;;;;5021716;28;20450;-84
2022/08/27 08:49:38;;;;;;;45.53;38.40;;;20.30;99.90;;;;;;5018825;28;20447;-83
2022/08/27 08:52:17;;;;;;;56.70;50.70;;;20.20;99.90;;;;;;5019479;28;20841;-83
2022/08/27 08:54:44;;;;;;;39.90;35.70;;;20.20;99.90;;;;;;5019196;28;20480;-82
2022/08/27 08:57:20;;;;;;;42.83;38.20;;;20.10;99.90;;;;;;5019401;28;20453;-82
2022/08/27 08:59:57;;;;;;;43.37;38.77;;;20.10;99.90;;;;;;5024407;28;20495;-79
2022/08/27 09:02:24;;;;;;;42.27;37.07;;;20.10;99.90;;;;;;5023981;28;20999;-79
2022/08/27 09:04:51;;;;;;;42.20;37.83;;;20.00;99.90;;;;;;5025048;28;20454;-79
2022/08/27 09:07:28;;;;;;;42.80;35.57;;;19.90;99.90;;;;;;5023840;28;20948;-79
2022/08/27 09:10:00;;;;;;;46.47;40.13;;;19.80;99.90;;;;;;5023840;28;20461;-78
2022/08/27 09:12:29;;;;;;;45.07;36.77;;;19.90;99.90;;;;;;5025292;28;20466;-78
2022/08/27 09:15:01;;;;;;;50.30;41.77;;;19.90;99.90;;;;;;5027314;28;20454;-78
2022/08/27 09:17:28;;;;;;;53.63;43.50;;;19.80;99.90;;;;;;5024206;28;20465;-79
2022/08/27 09:19:54;;;;;;;48.00;39.97;;;19.70;99.90;;;;;;5021545;28;20481;-79
2022/08/27 09:22:28;;;;;;;44.77;39.97;;;19.60;99.90;;;;;;5022787;28;20481;-79
2022/08/27 09:25:09;;;;;;;49.97;41.23;;;19.70;99.90;;;;;;5023534;28;20963;-77
2022/08/27 09:27:40;;;;;;;46.17;38.53;;;19.80;99.90;;;;;;5023841;28;20447;-79
2022/08/27 09:30:10;;;;;;;46.23;37.80;;;20.00;99.90;;;;;;5026858;28;20449;-79
2022/08/27 09:32:37;;;;;;;42.23;35.73;;;20.00;99.90;;;;;;5026624;28;20474;-80
2022/08/27 09:35:08;;;;;;;38.57;32.73;;;20.10;99.90;;;;;;5026107;28;20524;-79
2022/08/27 09:37:43;;;;;;;38.13;31.00;;;20.10;99.90;;;;;;5026530;28;20671;-79
2022/08/27 09:40:18;;;;;;;40.00;33.50;;;20.20;99.90;;;;;;5025533;28;20489;-79
2022/08/27 09:42:49;;;;;;;40.27;34.27;;;20.10;99.90;;;;;;5026636;28;20477;-79
2022/08/27 09:45:18;;;;;;;35.67;32.00;;;20.10;99.90;;;;;;5026060;28;20466;-79
2022/08/27 09:47:47;;;;;;;37.37;33.67;;;20.30;99.90;;;;;;5025202;28;20445;-79
2022/08/27 09:50:17;;;;;;;35.50;29.30;;;20.20;99.90;;;;;;5026456;28;20482;-79
2022/08/27 09:52:54;;;;;;;28.13;25.27;;;20.20;99.90;;;;;;5025438;28;20474;-79
2022/08/27 09:55:39;;;;;;;20.10;18.07;;;20.10;99.90;;;;;;5025503;28;20476;-79
2022/08/27 09:58:07;;;;;;;22.70;20.47;;;20.00;99.90;;;;;;5025439;28;20458;-79
2022/08/27 10:00:37;;;;;;;23.50;21.23;;;20.10;99.90;;;;;;5024758;28;20544;-79
2022/08/27 10:03:05;;;;;;;20.07;18.07;;;20.10;99.90;;;;;;5024963;28;20473;-79
2022/08/27 10:05:37;;;;;;;19.10;17.30;;;20.10;99.90;;;;;;5024834;28;20449;-79
2022/08/27 10:08:17;;;;;;;18.83;17.13;;;20.30;99.90;;;;;;5023762;28;20449;-79
2022/08/27 10:10:52;;;;;;;17.70;15.90;;;20.20;99.90;;;;;;5024918;28;20454;-79
2022/08/27 10:13:23;;;;;;;15.70;14.20;;;20.20;99.90;;;;;;5024191;28;20546;-79
2022/08/27 10:16:16;;;;;;;15.53;14.13;;;20.30;99.90;;;;;;5024081;28;20461;-79
2022/08/27 10:18:52;;;;;;;16.47;14.77;;;20.30;99.90;;;;;;5024896;28;20488;-78
2022/08/27 10:21:24;;;;;;;16.40;14.60;;;20.40;99.90;;;;;;5028777;28;20474;-79
2022/08/27 10:24:02;;;;;;;13.80;12.70;;;20.70;99.90;;;;;;5024886;28;20448;-79
2022/08/27 10:26:40;;;;;;;13.47;12.07;;;20.90;99.90;;;;;;5023970;28;20463;-79
2022/08/27 10:29:13;;;;;;;15.17;13.77;;;20.90;99.90;;;;;;5022957;28;20455;-79
2022/08/27 10:31:59;;;;;;;15.97;14.57;;;20.80;99.90;;;;;;5024020;28;20486;-79
2022/08/27 10:34:36;;;;;;;14.90;13.50;;;21.00;99.90;;;;;;5024215;28;20452;-79
2022/08/27 10:37:15;;;;;;;16.33;14.93;;;20.90;99.90;;;;;;5024214;28;20455;-79
2022/08/27 10:39:55;;;;;;;15.77;14.37;;;21.00;99.90;;;;;;5023341;28;20492;-79
2022/08/27 10:42:28;;;;;;;14.53;13.13;;;21.10;99.90;;;;;;5023248;28;20476;-79
2022/08/27 10:45:07;;;;;;;15.67;14.23;;;21.10;99.90;;;;;;5023918;28;20463;-79
2022/08/27 10:47:48;;;;;;;15.70;14.10;;;21.20;99.90;;;;;;5022510;28;20466;-78
2022/08/27 10:50:24;;;;;;;22.87;20.63;;;21.40;99.90;;;;;;5022049;28;20456;-82
2022/08/27 10:52:54;;;;;;;32.37;29.57;;;21.60;99.90;;;;;;5020355;28;20842;-82
2022/08/27 10:55:27;;;;;;;24.17;21.93;;;21.70;99.90;;;;;;5019579;28;20459;-81
2022/08/27 10:58:21;;;;;;;19.43;17.60;;;21.70;99.90;;;;;;5022891;28;20456;-82
2022/08/27 11:00:56;;;;;;;18.97;17.13;;;21.70;99.90;;;;;;5024566;28;20467;-80
2022/08/27 11:03:31;;;;;;;17.70;15.80;;;21.70;99.90;;;;;;5022807;28;20862;-81
2022/08/27 11:06:01;;;;;;;18.53;16.80;;;21.70;99.90;;;;;;5023029;28;20454;-80
2022/08/27 11:08:36;;;;;;;18.47;16.67;;;21.90;99.90;;;;;;5022114;28;20456;-81
2022/08/27 11:11:07;;;;;;;18.00;16.53;;;22.10;99.90;;;;;;5023048;28;20436;-80
2022/08/27 11:13:37;;;;;;;17.13;15.53;;;22.10;99.90;;;;;;5022638;28;20445;-80
2022/08/27 11:16:11;;;;;;;16.57;15.07;;;22.10;99.90;;;;;;5025530;28;20462;-79
2022/08/27 11:18:47;;;;;;;19.17;16.30;;;22.20;99.90;;;;;;5024149;28;20432;-79
2022/08/27 11:21:17;;;;;;;18.07;16.30;;;22.20;99.90;;;;;;5021768;28;20478;-80
2022/08/27 11:23:49;;;;;;;19.13;17.43;;;22.10;99.90;;;;;;5021720;28;20863;-80
2022/08/27 11:26:17;;;;;;;17.40;15.90;;;22.00;99.90;;;;;;5027678;28;20453;-78
2022/08/27 11:28:48;;;;;;;18.40;16.70;;;22.00;99.90;;;;;;5029015;28;20515;-78
2022/08/27 11:31:19;;;;;;;19.57;17.87;;;21.90;99.90;;;;;;5021956;28;20483;-79
2022/08/27 11:33:52;;;;;;;18.17;16.47;;;21.90;99.90;;;;;;5022051;28;20460;-80
2022/08/27 11:36:48;;;;;;;20.03;18.40;;;21.90;99.90;;;;;;5021280;28;20515;-80
2022/08/27 11:39:26;;;;;;;21.33;19.30;;;21.90;99.90;;;;;;5021007;28;20489;-80
2022/08/27 11:42:05;;;;;;;20.37;18.40;;;22.00;99.90;;;;;;5021179;28;20478;-79
2022/08/27 11:44:33;;;;;;;21.07;18.93;;;22.00;99.90;;;;;;5021171;28;20475;-81
2022/08/27 11:47:11;;;;;;;19.10;17.30;;;22.00;99.90;;;;;;5022089;28;20488;-81
2022/08/27 11:49:44;;;;;;;19.23;17.60;;;22.00;99.90;;;;;;5021058;28;20448;-81
2022/08/27 11:52:12;;;;;;;290.93;265.47;;;22.00;99.90;;;;;;5021797;28;20477;-85
2022/08/27 11:54:48;;;;;;;65.60;59.87;;;22.10;99.90;;;;;;5020159;28;20460;-81
2022/08/27 11:57:27;;;;;;;21.70;19.83;;;22.10;99.90;;;;;;5019593;28;20454;-80
2022/08/27 11:59:54;;;;;;;22.37;20.03;;;21.90;99.90;;;;;;5018346;28;20488;-80
2022/08/27 12:02:24;;;;;;;21.20;19.40;;;21.80;99.90;;;;;;5019097;28;20499;-80
2022/08/27 12:04:53;;;;;;;22.60;20.60;;;21.70;99.90;;;;;;5019124;28;20460;-80
2022/08/27 12:07:30;;;;;;;21.43;19.13;;;21.80;99.90;;;;;;5019632;28;20535;-79
2022/08/27 12:10:15;;;;;;;23.50;21.30;;;21.70;99.90;;;;;;5020114;28;20451;-81
2022/08/27 12:12:55;;;;;;;24.13;21.60;;;21.80;99.90;;;;;;5023780;28;20481;-80
2022/08/27 12:15:28;;;;;;;28.77;21.90;;;21.90;99.90;;;;;;5020469;28;20429;-80
2022/08/27 12:18:07;;;;;;;24.67;22.07;;;21.70;99.90;;;;;;5020128;28;20456;-80
2022/08/27 12:20:43;;;;;;;24.43;21.90;;;21.70;99.90;;;;;;5019831;28;20492;-81
2022/08/27 12:23:42;;;;;;;22.87;20.77;;;21.70;99.90;;;;;;5020114;28;20491;-81
2022/08/27 12:26:20;;;;;;;25.33;22.67;;;21.80;99.90;;;;;;5020461;28;20547;-81
2022/08/27 12:28:48;;;;;;;27.23;24.33;;;21.70;99.90;;;;;;5019775;28;20457;-81
2022/08/27 12:31:19;;;;;;;28.83;25.97;;;21.50;99.90;;;;;;5019738;28;20468;-81
2022/08/27 12:33:50;;;;;;;26.00;23.13;;;21.50;99.90;;;;;;5019733;28;20816;-81
2022/08/27 12:36:20;;;;;;;26.67;24.17;;;21.50;99.90;;;;;;5019778;28;20466;-81
2022/08/27 12:38:51;;;;;;;26.87;24.07;;;21.50;99.90;;;;;;5020668;28;20452;-81
2022/08/27 12:41:27;;;;;;;25.40;22.93;;;21.50;99.90;;;;;;5022021;28;20532;-80
2022/08/27 12:44:05;;;;;;;25.73;23.17;;;21.60;99.90;;;;;;5022032;28;20468;-81